< < Back
Terminal Aerodrome Forecast


Current Version              Previous Versions:   1  2  3  4  5  6  7  8  9  

Terminal Aerodrome Forecast

479
FTUS44 KBMX 010500
TAFBHM
TAF
KBHM 010528Z 0106/0206 VRB04KT P6SM SCT250
     FM011500 20007KT P6SM BKN050
     FM020100 VRB04KT P6SM SCT250=

Latest METAR

825
SAUS70 KWBC 010800 RRW
MTRBHM
METAR KBHM 010753Z 18004KT 10SM BKN150 26/20 A3010 RMK AO2 SLP182
T02560200 $


USA.gov is the U.S. government's official web portal to all federal, state and local government web resources and services.